Time;durP1;ratioP1;P1;durP2;ratioP2;P2;SDS_P1;SDS_P2;PMS_P1;PMS_P2;Temp;Humidity;BMP_temperature;BMP_pressure;BME280_temperature;BME280_humidity;BME280_pressure;Samples;Min_cycle;Max_cycle;Signal;HPM_P1;HPM_P2
2023/10/30 00:01:20;;;;;;;1.55;0.85;;;;;;;9.58;100.00;99370.91;4982565;28;20193;-47
2023/10/30 00:03:46;;;;;;;3.67;0.60;;;;;;;9.58;100.00;99374.44;4984390;28;20653;-46
2023/10/30 00:06:11;;;;;;;1.23;0.77;;;;;;;9.59;100.00;99383.31;4985573;28;20201;-47
2023/10/30 00:08:37;;;;;;;1.95;0.90;;;;;;;9.62;100.00;99384.00;4985879;28;20185;-46
2023/10/30 00:11:02;;;;;;;1.50;0.80;;;;;;;9.65;100.00;99383.81;4981982;28;20658;-47
2023/10/30 00:13:28;;;;;;;1.70;0.75;;;;;;;9.68;100.00;99385.44;4981333;28;20274;-46
2023/10/30 00:15:55;;;;;;;1.13;0.88;;;;;;;9.70;100.00;99383.53;4983357;28;20277;-47
2023/10/30 00:18:20;;;;;;;1.67;0.95;;;;;;;9.84;100.00;99396.13;4983712;28;20248;-46
2023/10/30 00:20:46;;;;;;;0.65;0.65;;;;;;;9.86;100.00;99396.88;4981362;28;20182;-47
2023/10/30 00:23:11;;;;;;;3.15;0.80;;;;;;;9.76;100.00;99391.22;4972776;28;20453;-48
2023/10/30 00:25:37;;;;;;;1.17;0.80;;;;;;;9.76;100.00;99407.25;4983167;28;20201;-47
2023/10/30 00:28:03;;;;;;;1.40;0.90;;;;;;;9.76;100.00;99404.59;4966414;28;20388;-47
2023/10/30 00:30:28;;;;;;;2.47;1.30;;;;;;;9.77;100.00;99414.31;4982254;28;20576;-50
2023/10/30 00:32:54;;;;;;;2.42;0.80;;;;;;;9.82;100.00;99417.63;4984343;28;20197;-50
2023/10/30 00:35:20;;;;;;;2.40;1.10;;;;;;;9.83;100.00;99423.81;4967028;28;20228;-46
2023/10/30 00:37:45;;;;;;;1.52;0.82;;;;;;;9.85;100.00;99427.28;4984678;28;20618;-47
2023/10/30 00:40:12;;;;;;;2.83;0.88;;;;;;;9.88;100.00;99430.66;4983071;28;20184;-50
2023/10/30 00:42:37;;;;;;;3.08;1.00;;;;;;;9.87;100.00;99431.56;4985712;28;20201;-46
2023/10/30 00:45:04;;;;;;;3.88;0.90;;;;;;;9.85;100.00;99419.25;4966738;28;20185;-47
2023/10/30 00:47:30;;;;;;;2.20;0.80;;;;;;;9.91;100.00;99437.63;4972973;28;20193;-46
2023/10/30 00:49:56;;;;;;;3.70;1.05;;;;;;;9.98;100.00;99438.13;4982464;28;20659;-48
2023/10/30 00:52:21;;;;;;;2.42;0.90;;;;;;;9.98;100.00;99448.84;4983867;28;20209;-46
2023/10/30 00:54:47;;;;;;;2.08;1.33;;;;;;;9.99;100.00;99446.06;4982382;28;20593;-45
2023/10/30 00:57:13;;;;;;;3.15;1.20;;;;;;;10.02;100.00;99434.34;4967382;28;20636;-46
2023/10/30 00:59:38;;;;;;;4.10;1.40;;;;;;;10.01;100.00;99436.13;4971551;28;20668;-46
2023/10/30 01:02:04;;;;;;;0.90;0.90;;;;;;;10.02;100.00;99447.72;4968663;28;20650;-44
2023/10/30 01:04:29;;;;;;;3.40;1.30;;;;;;;10.05;100.00;99452.88;4980902;28;20206;-43
2023/10/30 01:06:55;;;;;;;3.15;1.30;;;;;;;10.07;100.00;99454.50;4980610;28;20202;-46
2023/10/30 01:09:20;;;;;;;1.20;1.10;;;;;;;10.02;100.00;99448.56;4972807;28;20968;-46
2023/10/30 01:11:46;;;;;;;3.25;1.05;;;;;;;10.05;100.00;99459.06;4983069;28;20186;-44
2023/10/30 01:14:11;;;;;;;4.43;1.27;;;;;;;10.03;100.00;99460.13;4983546;28;20181;-46
2023/10/30 01:16:37;;;;;;;3.85;1.30;;;;;;;10.07;100.00;99456.31;4964678;28;20560;-44
2023/10/30 01:19:02;;;;;;;5.95;1.30;;;;;;;10.07;100.00;99472.38;4970166;28;20203;-44
2023/10/30 01:21:28;;;;;;;2.10;1.23;;;;;;;10.11;100.00;99465.91;4988541;28;20817;-46
2023/10/30 01:23:53;;;;;;;3.15;1.35;;;;;;;10.13;100.00;99461.31;4983660;28;20628;-47
2023/10/30 01:26:19;;;;;;;3.30;1.00;;;;;;;10.12;100.00;99467.59;4981045;28;20202;-44
2023/10/30 01:28:44;;;;;;;3.85;1.30;;;;;;;10.13;100.00;99466.66;4963943;28;20232;-45
2023/10/30 01:31:10;;;;;;;2.42;1.52;;;;;;;10.09;100.00;99473.16;4984979;28;20205;-42
2023/10/30 01:33:35;;;;;;;6.55;1.58;;;;;;;10.09;100.00;99468.66;4968257;28;20213;-44
2023/10/30 01:36:01;;;;;;;5.18;1.52;;;;;;;10.12;100.00;99475.63;4981321;28;20196;-48
2023/10/30 01:38:27;;;;;;;1.95;1.10;;;;;;;10.14;100.00;99479.09;4971200;28;21154;-45
2023/10/30 01:40:53;;;;;;;5.18;1.50;;;;;;;10.11;100.00;99477.47;4963453;28;20548;-41
2023/10/30 01:43:29;;;;;;;5.85;1.50;;;;;;;10.11;100.00;99496.19;4980323;28;20221;-45
2023/10/30 01:45:55;;;;;;;4.03;1.40;;;;;;;10.14;100.00;99489.78;4965165;28;20197;-42
2023/10/30 01:48:21;;;;;;;3.90;1.13;;;;;;;10.10;100.00;99483.78;4985114;28;20203;-44
2023/10/30 01:50:48;;;;;;;5.15;1.50;;;;;;;10.10;100.00;99493.59;4981643;28;20229;-44
2023/10/30 01:53:17;;;;;;;4.07;1.05;;;;;;;10.08;100.00;99503.56;4983580;28;20284;-45
2023/10/30 01:55:43;;;;;;;11.63;1.60;;;;;;;10.13;100.00;99506.81;4985459;28;20200;-46
2023/10/30 01:58:09;;;;;;;5.30;1.23;;;;;;;10.11;100.00;99506.91;4974058;28;20189;-46
2023/10/30 02:00:35;;;;;;;4.78;1.30;;;;;;;10.11;100.00;99506.03;4983674;28;20173;-44
2023/10/30 02:03:00;;;;;;;7.05;1.20;;;;;;;10.11;100.00;99511.41;4970156;28;20176;-46
2023/10/30 02:05:26;;;;;;;3.03;1.30;;;;;;;10.15;100.00;99504.91;4965401;28;20436;-45
2023/10/30 02:07:51;;;;;;;8.35;1.45;;;;;;;10.16;100.00;99522.69;4980818;28;20229;-44
2023/10/30 02:10:17;;;;;;;5.97;1.55;;;;;;;10.14;100.00;99513.88;4962946;28;20186;-46
2023/10/30 02:12:47;;;;;;;2.70;0.90;;;;;;;10.13;100.00;99517.53;4971717;28;20209;-45
2023/10/30 02:15:12;;;;;;;6.05;1.30;;;;;;;10.14;100.00;99515.69;4982852;28;20272;-45
2023/10/30 02:17:38;;;;;;;5.93;1.40;;;;;;;10.13;100.00;99512.16;4980724;28;20273;-47
2023/10/30 02:20:04;;;;;;;5.47;1.27;;;;;;;10.14;100.00;99518.38;4982495;28;20205;-48
2023/10/30 02:22:31;;;;;;;3.88;1.08;;;;;;;10.17;100.00;99521.75;4965522;28;20173;-47
2023/10/30 02:24:57;;;;;;;7.35;1.40;;;;;;;10.12;100.00;99526.47;4968740;28;20180;-47
2023/10/30 02:27:22;;;;;;;6.35;1.75;;;;;;;10.11;100.00;99530.97;4983554;28;20763;-45
2023/10/30 02:29:48;;;;;;;5.70;1.30;;;;;;;10.11;100.00;99532.81;4968430;28;20185;-48
2023/10/30 02:32:14;;;;;;;3.80;1.40;;;;;;;10.11;100.00;99540.84;4979217;28;20261;-45
2023/10/30 02:34:39;;;;;;;7.30;1.33;;;;;;;10.10;100.00;99526.59;4981095;28;20725;-46
2023/10/30 02:37:05;;;;;;;8.10;1.40;;;;;;;10.06;100.00;99532.22;4984590;28;20232;-46
2023/10/30 02:39:33;;;;;;;8.63;1.45;;;;;;;10.03;100.00;99540.41;4982947;28;20276;-47
2023/10/30 02:41:59;;;;;;;4.32;1.33;;;;;;;10.00;100.00;99543.25;4966097;28;20177;-47
2023/10/30 02:44:25;;;;;;;5.85;1.33;;;;;;;9.99;100.00;99549.53;4984427;28;20668;-44
2023/10/30 02:46:51;;;;;;;9.82;1.50;;;;;;;9.96;100.00;99549.72;4982983;28;20220;-46
2023/10/30 02:49:16;;;;;;;5.32;1.38;;;;;;;9.94;100.00;99554.31;4969241;28;20194;-45
2023/10/30 02:51:42;;;;;;;6.30;1.60;;;;;;;9.95;100.00;99550.66;4972598;28;20185;-45
2023/10/30 02:54:08;;;;;;;8.20;1.42;;;;;;;9.97;100.00;99562.16;4986124;28;20638;-45
2023/10/30 02:56:34;;;;;;;5.65;1.73;;;;;;;9.95;100.00;99550.66;4985073;28;20216;-48
2023/10/30 02:58:59;;;;;;;7.13;1.45;;;;;;;9.88;100.00;99560.84;4981600;28;20189;-45
2023/10/30 03:01:26;;;;;;;8.20;1.60;;;;;;;9.86;100.00;99560.06;4970631;28;20224;-45
2023/10/30 03:03:51;;;;;;;8.48;1.38;;;;;;;9.82;100.00;99578.13;4983053;28;20224;-46
2023/10/30 03:06:17;;;;;;;4.50;1.00;;;;;;;9.73;100.00;99562.59;4970606;28;20225;-45
2023/10/30 03:08:43;;;;;;;6.93;1.23;;;;;;;9.70;100.00;99563.59;4988682;28;20196;-45
2023/10/30 03:11:08;;;;;;;4.47;1.10;;;;;;;9.69;100.00;99563.69;4984753;28;20316;-47
2023/10/30 03:13:34;;;;;;;10.35;1.02;;;;;;;9.63;100.00;99567.56;4970432;28;20304;-44
2023/10/30 03:15:59;;;;;;;4.03;0.90;;;;;;;9.63;100.00;99569.38;4973379;28;20268;-46
2023/10/30 03:18:25;;;;;;;8.63;1.20;;;;;;;9.58;100.00;99563.44;4973482;28;20227;-45
2023/10/30 03:20:50;;;;;;;3.92;0.90;;;;;;;9.48;100.00;99571.91;4978443;28;20185;-46
2023/10/30 03:23:17;;;;;;;9.63;1.38;;;;;;;9.48;100.00;99563.91;4984128;28;20178;-45
2023/10/30 03:25:42;;;;;;;5.38;1.30;;;;;;;9.51;100.00;99578.03;4973453;28;20225;-46
2023/10/30 03:28:08;;;;;;;5.80;1.20;;;;;;;9.49;100.00;99580.81;4983995;28;20633;-44
2023/10/30 03:30:35;;;;;;;5.88;0.80;;;;;;;9.44;100.00;99583.72;4983267;28;20249;-49
2023/10/30 03:33:01;;;;;;;8.68;1.50;;;;;;;9.45;100.00;99590.81;4971913;28;20202;-46
2023/10/30 03:35:27;;;;;;;6.30;1.23;;;;;;;9.44;100.00;99594.41;4968672;28;20208;-46
2023/10/30 03:37:56;;;;;;;4.63;0.82;;;;;;;9.38;100.00;99589.41;4978759;28;20188;-44
2023/10/30 03:40:21;;;;;;;5.50;0.90;;;;;;;9.37;100.00;99585.00;4980509;28;20174;-48
2023/10/30 03:42:47;;;;;;;3.30;1.40;;;;;;;9.36;100.00;99582.41;4980063;28;20181;-44
2023/10/30 03:45:13;;;;;;;4.80;0.93;;;;;;;9.32;100.00;99599.56;4985403;28;20202;-45
2023/10/30 03:47:39;;;;;;;3.63;1.08;;;;;;;9.27;100.00;99599.78;4985199;28;20276;-46
2023/10/30 03:50:06;;;;;;;4.22;1.20;;;;;;;9.28;100.00;99594.38;4980073;28;20173;-47
2023/10/30 03:52:31;;;;;;;4.28;1.50;;;;;;;9.23;100.00;99601.78;4989393;28;20275;-48
2023/10/30 03:55:03;;;;;;;1.70;1.00;;;;;;;9.24;100.00;99606.16;4983820;28;20175;-46
2023/10/30 03:57:29;;;;;;;3.13;0.93;;;;;;;9.24;100.00;99598.16;4982871;28;20244;-45
2023/10/30 03:59:55;;;;;;;5.60;1.17;;;;;;;9.21;100.00;99597.47;4986284;28;20260;-45
2023/10/30 04:02:21;;;;;;;4.25;1.08;;;;;;;9.15;100.00;99592.44;4979238;28;20625;-45
2023/10/30 04:04:46;;;;;;;4.80;1.05;;;;;;;9.15;100.00;99601.31;4985082;28;20247;-46
2023/10/30 04:07:12;;;;;;;5.85;1.20;;;;;;;9.06;100.00;99610.66;4986082;28;20551;-43
2023/10/30 04:09:38;;;;;;;3.33;1.20;;;;;;;9.02;100.00;99603.75;4984164;28;20565;-44
2023/10/30 04:12:04;;;;;;;7.47;1.20;;;;;;;9.05;100.00;99605.38;4984999;28;20213;-47
2023/10/30 04:14:32;;;;;;;7.60;1.38;;;;;;;9.10;100.00;99616.72;4980628;28;20239;-44
2023/10/30 04:16:59;;;;;;;6.03;1.77;;;;;;;9.04;100.00;99623.22;4988190;28;20208;-46
2023/10/30 04:19:24;;;;;;;3.22;1.02;;;;;;;9.01;100.00;99620.72;4984055;28;20208;-46
2023/10/30 04:21:50;;;;;;;3.72;1.13;;;;;;;8.96;100.00;99619.22;4981132;28;20232;-47
2023/10/30 04:24:15;;;;;;;2.72;1.00;;;;;;;8.95;100.00;99622.84;4985231;28;20192;-46
2023/10/30 04:26:41;;;;;;;4.50;1.00;;;;;;;9.01;100.00;99619.88;4988358;28;20204;-47
2023/10/30 04:29:06;;;;;;;2.35;1.08;;;;;;;9.03;100.00;99631.31;4982494;28;20213;-43
2023/10/30 04:31:32;;;;;;;4.65;1.20;;;;;;;8.98;100.00;99612.84;4984990;28;20204;-44
2023/10/30 04:33:57;;;;;;;6.50;1.10;;;;;;;8.93;100.00;99624.75;4978045;28;20201;-43
2023/10/30 04:36:23;;;;;;;3.17;0.85;;;;;;;8.94;100.00;99621.09;4982765;28;20244;-44
2023/10/30 04:38:50;;;;;;;5.72;1.30;;;;;;;8.93;100.00;99628.25;4982687;28;20224;-42
2023/10/30 04:41:15;;;;;;;5.50;1.73;;;;;;;8.97;100.00;99627.16;4986631;28;20268;-46
2023/10/30 04:43:41;;;;;;;5.57;1.20;;;;;;;8.95;100.00;99641.56;4983438;28;20557;-43
2023/10/30 04:46:07;;;;;;;4.60;1.20;;;;;;;8.95;100.00;99628.19;4984795;28;20587;-43
2023/10/30 04:48:33;;;;;;;2.88;0.98;;;;;;;8.95;100.00;99633.53;4978903;28;20236;-46
2023/10/30 04:51:01;;;;;;;5.85;1.15;;;;;;;8.94;100.00;99637.13;4971993;28;20261;-44
2023/10/30 04:53:29;;;;;;;5.53;1.13;;;;;;;8.95;100.00;99636.22;4985522;28;20213;-44
2023/10/30 04:55:56;;;;;;;4.10;1.17;;;;;;;8.99;100.00;99638.66;4983999;28;20267;-46
2023/10/30 04:58:22;;;;;;;3.85;0.73;;;;;;;9.01;100.00;99650.13;4983278;28;20177;-45
2023/10/30 05:00:48;;;;;;;5.38;1.13;;;;;;;8.97;100.00;99643.19;4986913;28;20644;-44
2023/10/30 05:03:13;;;;;;;3.40;0.90;;;;;;;8.98;100.00;99650.25;4987035;28;20174;-45
2023/10/30 05:05:39;;;;;;;3.45;1.60;;;;;;;8.96;100.00;99637.94;4977939;28;20595;-45
2023/10/30 05:08:05;;;;;;;7.22;1.17;;;;;;;8.96;100.00;99643.28;4982822;28;20260;-47
2023/10/30 05:10:30;;;;;;;5.25;1.15;;;;;;;9.02;100.00;99650.97;4984845;28;20276;-47
2023/10/30 05:12:56;;;;;;;4.35;1.33;;;;;;;9.00;100.00;99643.03;4982754;28;20236;-45
2023/10/30 05:15:21;;;;;;;2.28;0.98;;;;;;;8.99;100.00;99653.81;4983540;28;20352;-43
2023/10/30 05:17:47;;;;;;;4.03;0.95;;;;;;;8.96;100.00;99637.94;4983502;28;20256;-45
2023/10/30 05:20:12;;;;;;;4.53;1.15;;;;;;;8.94;100.00;99639.81;4980023;28;20197;-46
2023/10/30 05:22:39;;;;;;;4.03;1.25;;;;;;;8.93;100.00;99641.63;4984471;28;20178;-44
2023/10/30 05:25:07;;;;;;;5.20;1.20;;;;;;;8.91;100.00;99642.66;4981333;28;20181;-46
2023/10/30 05:27:33;;;;;;;6.70;1.25;;;;;;;8.89;100.00;99645.38;4987673;28;20189;-44
2023/10/30 05:29:59;;;;;;;3.88;1.52;;;;;;;8.89;100.00;99657.88;4984332;28;20192;-45
2023/10/30 05:32:24;;;;;;;3.35;1.13;;;;;;;8.92;100.00;99652.38;4986352;28;20279;-44
2023/10/30 05:34:50;;;;;;;4.68;1.17;;;;;;;8.89;100.00;99657.88;4985723;28;20709;-47
2023/10/30 05:37:16;;;;;;;5.53;1.20;;;;;;;8.87;100.00;99655.28;4983761;28;20177;-45
2023/10/30 05:39:43;;;;;;;4.30;1.08;;;;;;;8.90;100.00;99659.59;4980207;28;20189;-42
2023/10/30 05:42:08;;;;;;;6.70;1.50;;;;;;;8.93;100.00;99664.81;4985772;28;20173;-43
2023/10/30 05:44:34;;;;;;;7.10;1.35;;;;;;;8.90;100.00;99652.47;4984856;28;21224;-47
2023/10/30 05:46:59;;;;;;;2.42;1.27;;;;;;;8.94;100.00;99651.34;4983945;28;20249;-45
2023/10/30 05:49:28;;;;;;;5.05;1.40;;;;;;;8.87;100.00;99664.16;4981354;28;20185;-44
2023/10/30 05:51:54;;;;;;;4.53;1.10;;;;;;;8.88;100.00;99659.69;4982090;28;20185;-44
2023/10/30 05:54:20;;;;;;;9.13;1.30;;;;;;;8.88;100.00;99667.72;4970256;28;20185;-43
2023/10/30 05:56:46;;;;;;;6.50;1.80;;;;;;;8.93;100.00;99671.00;4986374;28;20570;-48
2023/10/30 05:59:12;;;;;;;7.50;1.52;;;;;;;8.87;100.00;99677.50;4979804;28;20190;-43
2023/10/30 06:01:37;;;;;;;2.70;1.65;;;;;;;8.96;100.00;99667.31;4983982;28;20280;-46
2023/10/30 06:04:03;;;;;;;6.07;1.20;;;;;;;8.91;100.00;99677.38;4978382;28;20384;-47
2023/10/30 06:06:28;;;;;;;7.15;1.20;;;;;;;8.89;100.00;99674.78;4983466;28;20209;-43
2023/10/30 06:08:54;;;;;;;5.75;1.23;;;;;;;8.86;100.00;99672.25;4971912;28;20188;-43
2023/10/30 06:11:20;;;;;;;7.47;1.40;;;;;;;8.85;100.00;99676.75;4982535;28;20217;-45
2023/10/30 06:13:46;;;;;;;3.88;1.30;;;;;;;8.90;100.00;99679.19;4979033;28;20598;-42
2023/10/30 06:16:15;;;;;;;6.78;1.70;;;;;;;8.93;100.00;99684.38;4983484;28;20212;-45
2023/10/30 06:18:41;;;;;;;7.07;1.35;;;;;;;8.94;100.00;99675.38;4982783;28;20194;-45
2023/10/30 06:21:07;;;;;;;7.22;1.85;;;;;;;8.96;100.00;99683.34;4983601;28;20185;-47
2023/10/30 06:23:34;;;;;;;12.00;2.17;;;;;;;9.00;100.00;99677.75;4981309;28;20243;-43
2023/10/30 06:25:59;;;;;;;4.15;1.35;;;;;;;8.99;100.00;99676.03;4963201;28;20549;-46
2023/10/30 06:28:25;;;;;;;9.60;1.67;;;;;;;9.02;100.00;99675.88;4985765;28;20192;-49
2023/10/30 06:30:51;;;;;;;8.32;1.73;;;;;;;9.01;100.00;99679.50;4984219;28;20482;-44
2023/10/30 06:33:16;;;;;;;13.02;1.33;;;;;;;9.04;100.00;99673.13;4982816;28;20221;-47
2023/10/30 06:35:42;;;;;;;8.52;1.58;;;;;;;9.03;100.00;99660.72;4960676;28;20225;-46
2023/10/30 06:38:07;;;;;;;3.97;1.30;;;;;;;9.07;100.00;99663.19;4988062;28;20192;-45
2023/10/30 06:40:33;;;;;;;7.97;1.63;;;;;;;9.05;100.00;99678.41;4983888;28;20193;-45
2023/10/30 06:42:58;;;;;;;10.82;1.50;;;;;;;9.06;100.00;99669.44;4968399;28;20241;-45
2023/10/30 06:45:24;;;;;;;8.23;1.50;;;;;;;9.06;100.00;99674.78;4981526;28;20236;-44
2023/10/30 06:47:50;;;;;;;7.38;1.27;;;;;;;9.02;100.00;99686.56;4978737;28;20643;-44
2023/10/30 06:50:15;;;;;;;8.95;1.63;;;;;;;9.07;100.00;99695.25;4984107;28;20200;-46
2023/10/30 06:52:41;;;;;;;3.58;1.40;;;;;;;9.05;100.00;99698.91;4981826;28;20664;-46
2023/10/30 06:55:07;;;;;;;5.32;1.70;;;;;;;9.07;100.00;99692.56;4976668;28;20216;-43
2023/10/30 06:57:32;;;;;;;10.77;1.55;;;;;;;9.14;100.00;99702.91;4962166;28;20562;-45
2023/10/30 06:59:58;;;;;;;10.05;2.22;;;;;;;9.09;100.00;99700.47;4982539;28;20215;-49
2023/10/30 07:02:24;;;;;;;9.02;1.80;;;;;;;9.09;100.00;99705.81;4979313;28;20185;-47
2023/10/30 07:04:49;;;;;;;10.38;1.65;;;;;;;9.14;100.00;99705.59;4981013;28;20253;-45
2023/10/30 07:07:15;;;;;;;10.43;1.73;;;;;;;9.11;100.00;99701.28;4982855;28;20205;-43
2023/10/30 07:09:40;;;;;;;10.45;2.53;;;;;;;9.16;100.00;99701.03;4982160;28;20665;-45
2023/10/30 07:12:06;;;;;;;7.38;1.75;;;;;;;9.19;100.00;99711.59;4980150;28;20303;-42
2023/10/30 07:14:32;;;;;;;7.75;1.55;;;;;;;9.28;100.00;99713.78;4978388;28;20224;-43
2023/10/30 07:16:58;;;;;;;14.85;1.88;;;;;;;9.39;100.00;99715.91;4977820;28;20213;-46
2023/10/30 07:19:24;;;;;;;9.15;1.65;;;;;;;9.52;100.00;99726.84;4978682;28;20542;-42
2023/10/30 07:21:49;;;;;;;11.77;1.85;;;;;;;9.46;100.00;99718.19;4950338;28;20189;-47
2023/10/30 07:24:15;;;;;;;6.75;1.40;;;;;;;9.54;100.00;99731.16;4986229;28;20243;-45
2023/10/30 07:26:40;;;;;;;13.52;1.85;;;;;;;9.60;100.00;99725.50;4985008;28;20217;-46
2023/10/30 07:29:06;;;;;;;7.30;1.65;;;;;;;9.63;100.00;99724.47;4982076;28;20186;-45
2023/10/30 07:31:31;;;;;;;4.65;1.25;;;;;;;9.67;100.00;99728.72;4983221;28;20235;-47
2023/10/30 07:33:58;;;;;;;8.73;1.58;;;;;;;9.70;100.00;99733.91;4986154;28;20210;-46
2023/10/30 07:36:24;;;;;;;7.53;2.08;;;;;;;9.73;100.00;99735.56;4986344;28;20304;-45
2023/10/30 07:38:49;;;;;;;7.45;1.35;;;;;;;9.78;100.00;99729.03;4987527;28;20237;-46
2023/10/30 07:41:15;;;;;;;5.57;1.60;;;;;;;9.82;100.00;99741.28;4977461;28;20224;-46
2023/10/30 07:43:41;;;;;;;9.60;1.77;;;;;;;9.86;100.00;99744.66;4986849;28;20188;-44
2023/10/30 07:46:06;;;;;;;6.65;1.92;;;;;;;9.88;100.00;99742.75;4982554;28;20343;-47
2023/10/30 07:48:32;;;;;;;8.73;1.85;;;;;;;9.88;100.00;99751.69;4986509;28;20205;-45
2023/10/30 07:51:02;;;;;;;8.65;2.00;;;;;;;9.99;100.00;99747.56;4978455;28;20615;-47
2023/10/30 07:53:29;;;;;;;5.28;1.27;;;;;;;10.02;100.00;99742.06;4987670;28;20257;-46
2023/10/30 07:55:55;;;;;;;12.63;1.98;;;;;;;10.06;100.00;99740.94;4985471;28;20210;-41
2023/10/30 07:58:22;;;;;;;9.52;2.03;;;;;;;10.07;100.00;99742.66;4983833;28;20195;-42
2023/10/30 08:00:47;;;;;;;7.38;2.38;;;;;;;10.12;100.00;99751.28;4982492;28;20194;-45
2023/10/30 08:03:14;;;;;;;8.35;2.78;;;;;;;10.20;100.00;99748.22;4979372;28;20197;-43
2023/10/30 08:05:40;;;;;;;13.55;3.45;;;;;;;10.36;100.00;99762.53;4984540;28;20606;-46
2023/10/30 08:08:06;;;;;;;9.07;3.83;;;;;;;10.51;100.00;99766.19;4983524;28;20189;-44
2023/10/30 08:10:31;;;;;;;8.73;3.70;;;;;;;10.70;100.00;99758.84;4982161;28;20541;-42
2023/10/30 08:12:58;;;;;;;6.70;2.63;;;;;;;10.77;100.00;99756.69;4982241;28;20287;-45
2023/10/30 08:15:23;;;;;;;7.60;2.65;;;;;;;10.95;100.00;99765.50;4971908;28;20862;-45
2023/10/30 08:17:49;;;;;;;5.97;2.13;;;;;;;10.90;100.00;99763.09;4986109;28;20276;-45
2023/10/30 08:20:14;;;;;;;9.77;2.38;;;;;;;10.91;100.00;99770.19;4986218;28;20205;-44
2023/10/30 08:22:40;;;;;;;10.85;2.20;;;;;;;10.96;100.00;99774.44;4988168;28;20197;-44
2023/10/30 08:25:05;;;;;;;9.75;1.90;;;;;;;11.04;100.00;99769.47;4984937;28;20208;-46
2023/10/30 08:27:32;;;;;;;8.90;2.10;;;;;;;11.13;100.00;99774.34;4985397;28;20185;-44
2023/10/30 08:29:57;;;;;;;5.32;1.55;;;;;;;11.21;100.00;99752.44;4986183;28;20197;-45
2023/10/30 08:32:23;;;;;;;11.43;1.60;;;;;;;11.34;100.00;99764.16;4985937;28;20472;-45
2023/10/30 08:34:48;;;;;;;6.78;2.10;;;;;;;11.43;100.00;99760.94;4978720;28;20182;-46
2023/10/30 08:37:14;;;;;;;5.57;1.77;;;;;;;11.55;100.00;99760.22;4981565;28;20202;-46
2023/10/30 08:39:39;;;;;;;4.68;1.55;;;;;;;11.45;100.00;99761.72;4984304;28;20177;-46
2023/10/30 08:42:05;;;;;;;7.65;1.58;;;;;;;11.53;100.00;99759.44;4981857;28;20193;-45
2023/10/30 08:44:32;;;;;;;5.50;1.70;;;;;;;11.58;100.00;99767.22;4982119;28;20192;-46
2023/10/30 08:46:58;;;;;;;7.30;2.08;;;;;;;11.57;100.00;99756.56;4981731;28;20213;-45
2023/10/30 08:49:25;;;;;;;7.05;1.95;;;;;;;11.67;100.00;99752.38;4989135;28;20275;-44
2023/10/30 08:51:50;;;;;;;8.68;1.70;;;;;;;11.63;100.00;99746.38;4970498;28;20239;-44
2023/10/30 08:54:16;;;;;;;8.63;1.40;;;;;;;11.74;100.00;99743.88;4985419;28;20201;-44
2023/10/30 08:56:42;;;;;;;10.77;2.22;;;;;;;11.85;100.00;99742.34;4984307;28;20219;-45
2023/10/30 08:59:08;;;;;;;7.88;1.73;;;;;;;11.91;100.00;99742.03;4977280;28;20186;-45
2023/10/30 09:01:33;;;;;;;5.90;1.55;;;;;;;11.94;100.00;99758.81;4975118;28;20759;-44
2023/10/30 09:03:59;;;;;;;5.78;1.90;;;;;;;11.81;100.00;99757.81;4984025;28;20182;-46
2023/10/30 09:06:26;;;;;;;6.28;1.58;;;;;;;11.93;100.00;99764.25;4980451;28;20189;-45
2023/10/30 09:08:52;;;;;;;8.77;2.30;;;;;;;12.05;100.00;99755.47;4981168;28;20205;-45
2023/10/30 09:11:18;;;;;;;3.50;1.30;;;;;;;12.06;100.00;99770.59;4987185;28;20190;-46
2023/10/30 09:13:44;;;;;;;6.22;1.80;;;;;;;11.92;100.00;99760.72;4981142;28;20300;-45
2023/10/30 09:16:11;;;;;;;8.32;2.22;;;;;;;12.03;100.00;99769.94;4964664;28;20330;-45
2023/10/30 09:18:37;;;;;;;6.15;1.65;;;;;;;12.08;100.00;99775.91;4981191;28;20272;-44
2023/10/30 09:21:04;;;;;;;7.70;1.65;;;;;;;11.95;100.00;99773.94;4984585;28;20205;-45
2023/10/30 09:23:29;;;;;;;7.18;1.92;;;;;;;12.13;100.00;99782.72;4985709;28;20188;-46
2023/10/30 09:25:55;;;;;;;6.88;1.67;;;;;;;12.04;100.00;99768.97;4972394;28;20592;-46
2023/10/30 09:28:20;;;;;;;11.65;2.17;;;;;;;12.18;100.00;99770.81;4986602;28;20585;-46
2023/10/30 09:30:46;;;;;;;9.00;1.88;;;;;;;12.25;100.00;99774.84;4981103;28;20264;-47
2023/10/30 09:33:12;;;;;;;8.75;1.55;;;;;;;12.26;100.00;99774.75;4984912;28;20311;-44
2023/10/30 09:35:38;;;;;;;13.50;2.00;;;;;;;12.36;100.00;99769.69;4982657;28;20206;-44
2023/10/30 09:38:04;;;;;;;6.75;1.88;;;;;;;12.48;100.00;99779.63;4980141;28;20268;-47
2023/10/30 09:40:30;;;;;;;8.15;2.13;;;;;;;12.44;100.00;99771.88;4984754;28;20236;-43
2023/10/30 09:42:56;;;;;;;6.43;1.70;;;;;;;12.56;100.00;99771.97;4980029;28;20563;-43
2023/10/30 09:45:23;;;;;;;9.50;1.88;;;;;;;12.63;100.00;99779.63;4986418;28;20210;-45
2023/10/30 09:47:53;;;;;;;8.57;2.00;;;;;;;12.55;100.00;99774.72;4982775;28;20197;-48
2023/10/30 09:50:20;;;;;;;8.05;1.40;;;;;;;12.51;100.00;99781.28;4982339;28;20192;-45
2023/10/30 09:52:48;;;;;;;6.68;1.30;;;;;;;12.76;100.00;99770.69;4981273;28;20205;-48
2023/10/30 09:55:17;;;;;;;8.50;1.92;;;;;;;12.68;100.00;99762.28;4962467;28;20682;-47
2023/10/30 09:57:43;;;;;;;9.63;1.67;;;;;;;12.61;100.00;99774.34;4985587;28;20729;-45
2023/10/30 10:00:09;;;;;;;5.15;1.58;;;;;;;12.80;100.00;99773.19;4984811;28;20358;-49
2023/10/30 10:02:35;;;;;;;10.02;2.03;;;;;;;12.69;100.00;99780.09;4981857;28;20277;-46
2023/10/30 10:05:01;;;;;;;7.75;1.98;;;;;;;12.75;100.00;99774.34;4982362;28;20247;-45
2023/10/30 10:07:26;;;;;;;6.97;1.83;;;;;;;12.73;100.00;99786.16;4984125;28;20617;-45
2023/10/30 10:10:00;;;;;;;8.45;1.92;;;;;;;12.91;99.75;99770.66;4984400;28;20273;-44
2023/10/30 10:12:26;;;;;;;11.65;2.60;;;;;;;12.96;99.12;99768.53;4978862;28;20549;-44
2023/10/30 10:14:52;;;;;;;11.18;1.88;;;;;;;12.72;98.29;99779.91;4978293;28;20319;-45
2023/10/30 10:17:17;;;;;;;10.38;1.75;;;;;;;12.97;97.39;99767.59;4983819;28;20268;-44
2023/10/30 10:19:46;;;;;;;12.77;1.58;;;;;;;12.86;96.69;99768.28;4983823;28;20238;-46
2023/10/30 10:22:28;;;;;;;11.82;1.90;;;;;;;12.95;95.92;99774.88;4985559;28;20192;-46
2023/10/30 10:24:53;;;;;;;6.80;1.50;;;;;;;12.80;95.83;99762.44;4979482;28;20185;-46
2023/10/30 10:27:19;;;;;;;8.18;1.70;;;;;;;12.86;95.41;99764.72;4987121;28;20219;-44
2023/10/30 10:29:52;;;;;;;5.55;1.40;;;;;;;12.94;95.42;99767.75;4985006;28;20608;-44
2023/10/30 10:32:17;;;;;;;13.30;1.90;;;;;;;13.01;95.44;99770.91;4984054;28;20216;-45
2023/10/30 10:34:48;;;;;;;6.38;1.20;;;;;;;12.83;94.88;99770.28;4978754;28;20301;-45
2023/10/30 10:37:17;;;;;;;9.82;2.40;;;;;;;12.90;94.84;99758.16;4981451;28;20201;-43
2023/10/30 10:39:48;;;;;;;3.85;1.42;;;;;;;12.87;94.45;99761.94;4982481;28;20205;-46
2023/10/30 10:42:17;;;;;;;7.40;1.35;;;;;;;12.96;94.20;99763.16;4985143;28;20252;-45
2023/10/30 10:44:44;;;;;;;11.07;1.98;;;;;;;13.15;93.79;99758.28;4978441;28;20190;-44
2023/10/30 10:47:11;;;;;;;9.57;1.63;;;;;;;13.01;93.33;99752.97;4982164;28;20205;-48
2023/10/30 10:49:37;;;;;;;7.43;1.65;;;;;;;13.00;92.74;99759.31;4983545;28;20200;-44
2023/10/30 10:52:08;;;;;;;8.93;1.88;;;;;;;13.24;92.25;99753.28;4981997;28;20186;-48
2023/10/30 10:54:40;;;;;;;5.45;1.45;;;;;;;13.44;91.93;99750.13;4982402;28;20186;-42
2023/10/30 10:57:08;;;;;;;5.32;1.35;;;;;;;13.38;91.55;99751.44;4982733;28;20690;-45
2023/10/30 10:59:34;;;;;;;9.32;1.50;;;;;;;13.41;90.88;99739.59;4984268;28;20196;-44
2023/10/30 11:02:08;;;;;;;7.45;1.90;;;;;;;13.62;90.34;99741.78;4987079;28;20272;-47
2023/10/30 11:04:34;;;;;;;6.82;1.50;;;;;;;13.43;90.07;99751.13;4986907;28;20185;-44
2023/10/30 11:07:06;;;;;;;7.85;1.70;;;;;;;13.51;89.78;99738.00;4984645;28;20279;-44
2023/10/30 11:09:41;;;;;;;8.40;1.70;;;;;;;13.74;89.97;99738.25;4983147;28;20578;-44
2023/10/30 11:12:21;;;;;;;5.15;1.40;;;;;;;13.71;89.12;99735.75;4984617;28;20180;-45
2023/10/30 11:14:47;;;;;;;7.05;1.48;;;;;;;13.54;88.83;99726.16;4985777;28;20185;-45
2023/10/30 11:17:12;;;;;;;4.32;1.35;;;;;;;13.60;88.60;99723.91;4987975;28;20244;-44
2023/10/30 11:19:38;;;;;;;6.80;1.58;;;;;;;13.50;88.11;99719.28;4984875;28;20559;-46
2023/10/30 11:22:04;;;;;;;7.35;1.52;;;;;;;13.52;88.20;99723.56;4984187;28;20193;-44
2023/10/30 11:24:37;;;;;;;6.53;2.08;;;;;;;13.68;88.21;99726.06;4988890;28;20596;-44